sensor_id;sensor_type;location;lat;lon;timestamp;P1;durP1;ratioP1;P2;durP2;ratioP2
12687;SDS011;6408;59.388;17.798;2023-11-19T00:00:38;1.00;;;0.93;;
12687;SDS011;6408;59.388;17.798;2023-11-19T00:03:05;1.70;;;1.60;;
12687;SDS011;6408;59.388;17.798;2023-11-19T00:05:33;1.93;;;1.27;;
12687;SDS011;6408;59.388;17.798;2023-11-19T00:08:03;1.77;;;1.40;;
12687;SDS011;6408;59.388;17.798;2023-11-19T00:10:32;1.57;;;1.47;;
12687;SDS011;6408;59.388;17.798;2023-11-19T00:12:59;2.97;;;1.50;;
12687;SDS011;6408;59.388;17.798;2023-11-19T00:15:28;2.83;;;1.40;;
12687;SDS011;6408;59.388;17.798;2023-11-19T00:17:57;1.40;;;1.30;;
12687;SDS011;6408;59.388;17.798;2023-11-19T00:20:29;1.43;;;1.33;;
12687;SDS011;6408;59.388;17.798;2023-11-19T00:22:57;1.40;;;1.30;;
12687;SDS011;6408;59.388;17.798;2023-11-19T00:25:28;1.90;;;1.40;;
12687;SDS011;6408;59.388;17.798;2023-11-19T00:27:57;2.80;;;1.70;;
12687;SDS011;6408;59.388;17.798;2023-11-19T00:30:25;1.37;;;1.27;;
12687;SDS011;6408;59.388;17.798;2023-11-19T00:32:52;1.37;;;1.27;;
12687;SDS011;6408;59.388;17.798;2023-11-19T00:35:22;1.73;;;1.60;;
12687;SDS011;6408;59.388;17.798;2023-11-19T00:37:49;1.63;;;1.50;;
12687;SDS011;6408;59.388;17.798;2023-11-19T00:40:19;2.10;;;1.50;;
12687;SDS011;6408;59.388;17.798;2023-11-19T00:42:48;1.40;;;1.30;;
12687;SDS011;6408;59.388;17.798;2023-11-19T00:45:17;2.03;;;1.30;;
12687;SDS011;6408;59.388;17.798;2023-11-19T00:47:44;1.53;;;1.23;;
12687;SDS011;6408;59.388;17.798;2023-11-19T00:50:12;1.63;;;1.33;;
12687;SDS011;6408;59.388;17.798;2023-11-19T00:52:40;1.70;;;1.30;;
12687;SDS011;6408;59.388;17.798;2023-11-19T00:55:08;1.40;;;1.30;;
12687;SDS011;6408;59.388;17.798;2023-11-19T00:57:36;1.87;;;1.30;;
12687;SDS011;6408;59.388;17.798;2023-11-19T01:00:04;1.30;;;1.20;;
12687;SDS011;6408;59.388;17.798;2023-11-19T01:02:44;1.73;;;1.30;;
12687;SDS011;6408;59.388;17.798;2023-11-19T01:05:15;1.40;;;1.30;;
12687;SDS011;6408;59.388;17.798;2023-11-19T01:07:43;1.90;;;1.70;;
12687;SDS011;6408;59.388;17.798;2023-11-19T01:10:14;1.23;;;1.10;;
12687;SDS011;6408;59.388;17.798;2023-11-19T01:12:42;1.30;;;1.20;;
12687;SDS011;6408;59.388;17.798;2023-11-19T01:15:09;1.40;;;1.20;;
12687;SDS011;6408;59.388;17.798;2023-11-19T01:17:38;1.90;;;1.50;;
12687;SDS011;6408;59.388;17.798;2023-11-19T01:20:09;1.60;;;1.50;;
12687;SDS011;6408;59.388;17.798;2023-11-19T01:22:38;1.40;;;1.20;;
12687;SDS011;6408;59.388;17.798;2023-11-19T01:25:06;1.03;;;1.00;;
12687;SDS011;6408;59.388;17.798;2023-11-19T01:27:34;1.30;;;1.20;;
12687;SDS011;6408;59.388;17.798;2023-11-19T01:30:03;1.37;;;1.23;;
12687;SDS011;6408;59.388;17.798;2023-11-19T01:32:44;1.87;;;1.10;;
12687;SDS011;6408;59.388;17.798;2023-11-19T01:35:19;1.33;;;1.23;;
12687;SDS011;6408;59.388;17.798;2023-11-19T01:37:48;1.40;;;1.30;;
12687;SDS011;6408;59.388;17.798;2023-11-19T01:40:19;1.30;;;1.20;;
12687;SDS011;6408;59.388;17.798;2023-11-19T01:42:48;1.43;;;1.30;;
12687;SDS011;6408;59.388;17.798;2023-11-19T01:45:21;1.50;;;1.40;;
12687;SDS011;6408;59.388;17.798;2023-11-19T01:47:55;1.87;;;1.50;;
12687;SDS011;6408;59.388;17.798;2023-11-19T01:50:26;1.43;;;1.30;;
12687;SDS011;6408;59.388;17.798;2023-11-19T01:52:56;1.20;;;1.10;;
12687;SDS011;6408;59.388;17.798;2023-11-19T01:55:26;1.50;;;1.40;;
12687;SDS011;6408;59.388;17.798;2023-11-19T01:57:54;1.70;;;1.27;;
12687;SDS011;6408;59.388;17.798;2023-11-19T02:00:28;1.10;;;1.00;;
12687;SDS011;6408;59.388;17.798;2023-11-19T02:02:55;1.53;;;1.40;;
12687;SDS011;6408;59.388;17.798;2023-11-19T02:05:23;1.20;;;1.10;;
12687;SDS011;6408;59.388;17.798;2023-11-19T02:08:01;2.60;;;1.27;;
12687;SDS011;6408;59.388;17.798;2023-11-19T02:10:28;1.47;;;1.37;;
12687;SDS011;6408;59.388;17.798;2023-11-19T02:12:57;1.20;;;1.10;;
12687;SDS011;6408;59.388;17.798;2023-11-19T02:15:26;1.43;;;1.30;;
12687;SDS011;6408;59.388;17.798;2023-11-19T02:17:54;1.27;;;1.17;;
12687;SDS011;6408;59.388;17.798;2023-11-19T02:20:26;1.70;;;1.30;;
12687;SDS011;6408;59.388;17.798;2023-11-19T02:22:54;1.33;;;1.23;;
12687;SDS011;6408;59.388;17.798;2023-11-19T02:25:25;1.57;;;1.30;;
12687;SDS011;6408;59.388;17.798;2023-11-19T02:27:59;1.40;;;1.30;;
12687;SDS011;6408;59.388;17.798;2023-11-19T02:30:42;1.63;;;1.50;;
12687;SDS011;6408;59.388;17.798;2023-11-19T02:33:09;1.60;;;1.20;;
12687;SDS011;6408;59.388;17.798;2023-11-19T02:35:38;1.00;;;0.90;;
12687;SDS011;6408;59.388;17.798;2023-11-19T02:38:06;2.07;;;1.20;;
12687;SDS011;6408;59.388;17.798;2023-11-19T02:40:34;1.63;;;1.30;;
12687;SDS011;6408;59.388;17.798;2023-11-19T02:43:03;1.50;;;1.40;;
12687;SDS011;6408;59.388;17.798;2023-11-19T02:45:31;1.47;;;1.20;;
12687;SDS011;6408;59.388;17.798;2023-11-19T02:48:01;1.20;;;1.10;;
12687;SDS011;6408;59.388;17.798;2023-11-19T02:50:31;1.47;;;1.37;;
12687;SDS011;6408;59.388;17.798;2023-11-19T02:52:59;1.47;;;1.10;;
12687;SDS011;6408;59.388;17.798;2023-11-19T02:55:29;1.27;;;1.17;;
12687;SDS011;6408;59.388;17.798;2023-11-19T02:58:03;1.40;;;1.30;;
12687;SDS011;6408;59.388;17.798;2023-11-19T03:00:41;2.60;;;1.50;;
12687;SDS011;6408;59.388;17.798;2023-11-19T03:03:17;2.50;;;1.10;;
12687;SDS011;6408;59.388;17.798;2023-11-19T03:05:45;1.23;;;1.13;;
12687;SDS011;6408;59.388;17.798;2023-11-19T03:08:14;1.50;;;1.40;;
12687;SDS011;6408;59.388;17.798;2023-11-19T03:10:42;1.77;;;1.23;;
12687;SDS011;6408;59.388;17.798;2023-11-19T03:13:13;1.27;;;1.17;;
12687;SDS011;6408;59.388;17.798;2023-11-19T03:15:43;1.30;;;1.10;;
12687;SDS011;6408;59.388;17.798;2023-11-19T03:18:13;2.50;;;1.60;;
12687;SDS011;6408;59.388;17.798;2023-11-19T03:20:42;1.30;;;1.20;;
12687;SDS011;6408;59.388;17.798;2023-11-19T03:23:09;1.50;;;1.10;;
12687;SDS011;6408;59.388;17.798;2023-11-19T03:25:38;1.30;;;1.20;;
12687;SDS011;6408;59.388;17.798;2023-11-19T03:28:07;1.70;;;1.40;;
12687;SDS011;6408;59.388;17.798;2023-11-19T03:30:36;1.33;;;1.20;;
12687;SDS011;6408;59.388;17.798;2023-11-19T03:33:04;1.50;;;1.30;;
12687;SDS011;6408;59.388;17.798;2023-11-19T03:35:32;1.30;;;1.20;;
12687;SDS011;6408;59.388;17.798;2023-11-19T03:38:00;1.53;;;1.30;;
12687;SDS011;6408;59.388;17.798;2023-11-19T03:40:29;1.70;;;1.30;;
12687;SDS011;6408;59.388;17.798;2023-11-19T03:42:57;3.73;;;1.30;;
12687;SDS011;6408;59.388;17.798;2023-11-19T03:45:26;1.03;;;1.03;;
12687;SDS011;6408;59.388;17.798;2023-11-19T03:47:57;1.47;;;1.10;;
12687;SDS011;6408;59.388;17.798;2023-11-19T03:50:29;1.97;;;1.33;;
12687;SDS011;6408;59.388;17.798;2023-11-19T03:52:57;1.40;;;1.30;;
12687;SDS011;6408;59.388;17.798;2023-11-19T03:55:24;1.53;;;1.33;;
12687;SDS011;6408;59.388;17.798;2023-11-19T03:57:51;1.37;;;1.27;;
12687;SDS011;6408;59.388;17.798;2023-11-19T04:00:19;1.30;;;1.20;;
12687;SDS011;6408;59.388;17.798;2023-11-19T04:02:47;1.20;;;1.10;;
12687;SDS011;6408;59.388;17.798;2023-11-19T04:05:16;1.30;;;1.20;;
12687;SDS011;6408;59.388;17.798;2023-11-19T04:07:45;2.00;;;1.10;;
12687;SDS011;6408;59.388;17.798;2023-11-19T04:10:13;1.50;;;1.40;;
12687;SDS011;6408;59.388;17.798;2023-11-19T04:12:42;1.23;;;1.13;;
12687;SDS011;6408;59.388;17.798;2023-11-19T04:15:10;1.60;;;1.30;;
12687;SDS011;6408;59.388;17.798;2023-11-19T04:17:38;1.40;;;1.30;;
12687;SDS011;6408;59.388;17.798;2023-11-19T04:20:06;1.30;;;1.20;;
12687;SDS011;6408;59.388;17.798;2023-11-19T04:22:49;1.20;;;1.10;;
12687;SDS011;6408;59.388;17.798;2023-11-19T04:25:19;1.57;;;1.10;;
12687;SDS011;6408;59.388;17.798;2023-11-19T04:27:47;1.40;;;1.30;;
12687;SDS011;6408;59.388;17.798;2023-11-19T04:30:14;2.13;;;1.33;;
12687;SDS011;6408;59.388;17.798;2023-11-19T04:32:42;1.30;;;1.20;;
12687;SDS011;6408;59.388;17.798;2023-11-19T04:35:11;1.20;;;1.10;;
12687;SDS011;6408;59.388;17.798;2023-11-19T04:37:44;1.20;;;1.10;;
12687;SDS011;6408;59.388;17.798;2023-11-19T04:40:12;1.30;;;1.20;;
12687;SDS011;6408;59.388;17.798;2023-11-19T04:42:40;1.50;;;1.37;;
12687;SDS011;6408;59.388;17.798;2023-11-19T04:45:09;1.20;;;1.10;;
12687;SDS011;6408;59.388;17.798;2023-11-19T04:47:41;1.20;;;1.10;;
12687;SDS011;6408;59.388;17.798;2023-11-19T04:50:09;1.20;;;1.10;;
12687;SDS011;6408;59.388;17.798;2023-11-19T04:52:37;1.27;;;1.17;;
12687;SDS011;6408;59.388;17.798;2023-11-19T04:55:07;2.00;;;1.30;;
12687;SDS011;6408;59.388;17.798;2023-11-19T04:57:38;1.50;;;1.40;;
12687;SDS011;6408;59.388;17.798;2023-11-19T05:00:08;1.30;;;1.20;;
12687;SDS011;6408;59.388;17.798;2023-11-19T05:02:37;1.00;;;1.00;;
12687;SDS011;6408;59.388;17.798;2023-11-19T05:05:04;1.93;;;1.20;;
12687;SDS011;6408;59.388;17.798;2023-11-19T05:07:50;2.13;;;1.40;;
12687;SDS011;6408;59.388;17.798;2023-11-19T05:10:21;1.10;;;1.00;;
12687;SDS011;6408;59.388;17.798;2023-11-19T05:12:50;1.40;;;1.20;;
12687;SDS011;6408;59.388;17.798;2023-11-19T05:15:24;1.90;;;1.70;;
12687;SDS011;6408;59.388;17.798;2023-11-19T05:18:01;1.60;;;1.47;;
12687;SDS011;6408;59.388;17.798;2023-11-19T05:20:30;2.00;;;1.70;;
12687;SDS011;6408;59.388;17.798;2023-11-19T05:23:00;1.60;;;1.40;;
12687;SDS011;6408;59.388;17.798;2023-11-19T05:25:37;2.67;;;1.67;;
12687;SDS011;6408;59.388;17.798;2023-11-19T05:28:05;1.97;;;1.67;;
12687;SDS011;6408;59.388;17.798;2023-11-19T05:30:33;1.67;;;1.57;;
12687;SDS011;6408;59.388;17.798;2023-11-19T05:33:00;1.90;;;1.50;;
12687;SDS011;6408;59.388;17.798;2023-11-19T05:35:28;1.53;;;1.43;;
12687;SDS011;6408;59.388;17.798;2023-11-19T05:37:55;2.10;;;1.87;;
12687;SDS011;6408;59.388;17.798;2023-11-19T05:40:23;1.60;;;1.40;;
12687;SDS011;6408;59.388;17.798;2023-11-19T05:42:52;1.87;;;1.63;;
12687;SDS011;6408;59.388;17.798;2023-11-19T05:45:19;2.47;;;2.10;;
12687;SDS011;6408;59.388;17.798;2023-11-19T05:47:47;1.80;;;1.40;;
12687;SDS011;6408;59.388;17.798;2023-11-19T05:50:19;2.47;;;1.70;;
12687;SDS011;6408;59.388;17.798;2023-11-19T05:52:48;1.80;;;1.50;;
12687;SDS011;6408;59.388;17.798;2023-11-19T05:55:16;1.60;;;1.50;;
12687;SDS011;6408;59.388;17.798;2023-11-19T05:57:45;1.70;;;1.50;;
12687;SDS011;6408;59.388;17.798;2023-11-19T06:00:14;1.73;;;1.60;;
12687;SDS011;6408;59.388;17.798;2023-11-19T06:02:43;2.17;;;1.70;;
12687;SDS011;6408;59.388;17.798;2023-11-19T06:05:10;1.50;;;1.40;;
12687;SDS011;6408;59.388;17.798;2023-11-19T06:07:39;2.03;;;1.60;;
12687;SDS011;6408;59.388;17.798;2023-11-19T06:10:07;2.20;;;2.00;;
12687;SDS011;6408;59.388;17.798;2023-11-19T06:12:36;1.77;;;1.60;;
12687;SDS011;6408;59.388;17.798;2023-11-19T06:15:07;1.80;;;1.70;;
12687;SDS011;6408;59.388;17.798;2023-11-19T06:17:38;2.93;;;1.90;;
12687;SDS011;6408;59.388;17.798;2023-11-19T06:20:07;2.20;;;1.80;;
12687;SDS011;6408;59.388;17.798;2023-11-19T06:22:57;1.67;;;1.57;;
12687;SDS011;6408;59.388;17.798;2023-11-19T06:25:25;2.03;;;1.80;;
12687;SDS011;6408;59.388;17.798;2023-11-19T06:27:52;2.60;;;1.73;;
12687;SDS011;6408;59.388;17.798;2023-11-19T06:30:23;2.83;;;2.53;;
12687;SDS011;6408;59.388;17.798;2023-11-19T06:32:55;2.33;;;1.87;;
12687;SDS011;6408;59.388;17.798;2023-11-19T06:35:25;2.43;;;1.70;;
12687;SDS011;6408;59.388;17.798;2023-11-19T06:40:46;2.00;;;1.73;;
12687;SDS011;6408;59.388;17.798;2023-11-19T06:43:33;1.67;;;1.57;;
12687;SDS011;6408;59.388;17.798;2023-11-19T06:46:04;1.87;;;1.43;;
12687;SDS011;6408;59.388;17.798;2023-11-19T06:48:44;3.90;;;1.60;;
12687;SDS011;6408;59.388;17.798;2023-11-19T06:51:12;1.97;;;1.70;;
12687;SDS011;6408;59.388;17.798;2023-11-19T06:53:42;2.27;;;2.07;;
12687;SDS011;6408;59.388;17.798;2023-11-19T06:56:17;3.60;;;2.07;;
12687;SDS011;6408;59.388;17.798;2023-11-19T06:58:49;2.23;;;2.00;;
12687;SDS011;6408;59.388;17.798;2023-11-19T07:01:23;2.53;;;2.13;;
12687;SDS011;6408;59.388;17.798;2023-11-19T07:03:58;2.60;;;2.40;;
12687;SDS011;6408;59.388;17.798;2023-11-19T07:06:35;2.80;;;2.07;;
12687;SDS011;6408;59.388;17.798;2023-11-19T07:11:55;1.90;;;1.70;;
12687;SDS011;6408;59.388;17.798;2023-11-19T07:17:50;2.77;;;1.70;;
12687;SDS011;6408;59.388;17.798;2023-11-19T07:20:21;3.73;;;2.00;;
12687;SDS011;6408;59.388;17.798;2023-11-19T07:22:52;2.83;;;2.00;;
12687;SDS011;6408;59.388;17.798;2023-11-19T07:25:20;2.93;;;2.00;;
12687;SDS011;6408;59.388;17.798;2023-11-19T07:27:52;2.40;;;1.70;;
12687;SDS011;6408;59.388;17.798;2023-11-19T07:33:56;2.80;;;2.20;;
12687;SDS011;6408;59.388;17.798;2023-11-19T07:36:42;2.50;;;2.30;;
12687;SDS011;6408;59.388;17.798;2023-11-19T07:39:11;2.37;;;2.17;;
12687;SDS011;6408;59.388;17.798;2023-11-19T07:41:39;2.63;;;1.80;;
12687;SDS011;6408;59.388;17.798;2023-11-19T07:44:22;2.27;;;2.07;;
12687;SDS011;6408;59.388;17.798;2023-11-19T07:46:58;2.80;;;1.83;;
12687;SDS011;6408;59.388;17.798;2023-11-19T07:49:25;2.03;;;1.87;;
12687;SDS011;6408;59.388;17.798;2023-11-19T07:51:54;2.63;;;2.27;;
12687;SDS011;6408;59.388;17.798;2023-11-19T07:54:22;2.07;;;1.87;;
12687;SDS011;6408;59.388;17.798;2023-11-19T07:56:49;2.53;;;2.00;;
12687;SDS011;6408;59.388;17.798;2023-11-19T07:59:19;3.00;;;1.90;;
12687;SDS011;6408;59.388;17.798;2023-11-19T08:01:49;2.10;;;1.90;;
12687;SDS011;6408;59.388;17.798;2023-11-19T08:04:20;4.13;;;1.80;;
12687;SDS011;6408;59.388;17.798;2023-11-19T08:06:47;4.17;;;2.47;;
12687;SDS011;6408;59.388;17.798;2023-11-19T08:09:18;4.13;;;2.33;;
12687;SDS011;6408;59.388;17.798;2023-11-19T08:11:48;6.83;;;2.60;;
12687;SDS011;6408;59.388;17.798;2023-11-19T08:14:16;2.97;;;2.33;;
12687;SDS011;6408;59.388;17.798;2023-11-19T08:16:45;4.90;;;2.80;;
12687;SDS011;6408;59.388;17.798;2023-11-19T08:19:13;3.07;;;2.47;;
12687;SDS011;6408;59.388;17.798;2023-11-19T08:21:40;3.80;;;2.73;;
12687;SDS011;6408;59.388;17.798;2023-11-19T08:24:08;4.10;;;2.60;;
12687;SDS011;6408;59.388;17.798;2023-11-19T08:26:41;3.63;;;2.70;;
12687;SDS011;6408;59.388;17.798;2023-11-19T08:29:10;4.23;;;2.73;;
12687;SDS011;6408;59.388;17.798;2023-11-19T08:31:38;2.77;;;2.47;;
12687;SDS011;6408;59.388;17.798;2023-11-19T08:34:06;3.57;;;2.37;;
12687;SDS011;6408;59.388;17.798;2023-11-19T08:36:34;4.47;;;2.97;;
12687;SDS011;6408;59.388;17.798;2023-11-19T08:39:01;6.60;;;3.77;;
12687;SDS011;6408;59.388;17.798;2023-11-19T08:41:29;7.73;;;3.30;;
12687;SDS011;6408;59.388;17.798;2023-11-19T08:43:57;3.70;;;3.03;;
12687;SDS011;6408;59.388;17.798;2023-11-19T08:46:25;4.47;;;2.97;;
12687;SDS011;6408;59.388;17.798;2023-11-19T08:48:55;3.73;;;2.70;;
12687;SDS011;6408;59.388;17.798;2023-11-19T08:51:22;4.00;;;3.53;;
12687;SDS011;6408;59.388;17.798;2023-11-19T08:53:51;3.60;;;2.73;;
12687;SDS011;6408;59.388;17.798;2023-11-19T08:56:21;3.47;;;2.50;;
12687;SDS011;6408;59.388;17.798;2023-11-19T08:58:52;3.40;;;2.90;;
12687;SDS011;6408;59.388;17.798;2023-11-19T09:01:24;4.17;;;2.53;;
12687;SDS011;6408;59.388;17.798;2023-11-19T09:03:52;5.73;;;2.27;;
12687;SDS011;6408;59.388;17.798;2023-11-19T09:06:21;2.80;;;2.40;;
12687;SDS011;6408;59.388;17.798;2023-11-19T09:08:49;3.30;;;2.40;;
12687;SDS011;6408;59.388;17.798;2023-11-19T09:11:16;2.60;;;2.23;;
12687;SDS011;6408;59.388;17.798;2023-11-19T09:13:43;2.90;;;2.50;;
12687;SDS011;6408;59.388;17.798;2023-11-19T09:16:11;3.10;;;2.57;;
12687;SDS011;6408;59.388;17.798;2023-11-19T09:18:40;5.17;;;2.90;;
12687;SDS011;6408;59.388;17.798;2023-11-19T09:21:07;4.37;;;2.90;;
12687;SDS011;6408;59.388;17.798;2023-11-19T09:23:36;2.97;;;2.60;;
12687;SDS011;6408;59.388;17.798;2023-11-19T09:26:04;4.43;;;2.67;;
12687;SDS011;6408;59.388;17.798;2023-11-19T09:28:33;3.03;;;2.73;;
12687;SDS011;6408;59.388;17.798;2023-11-19T09:31:12;2.80;;;2.53;;
12687;SDS011;6408;59.388;17.798;2023-11-19T09:33:44;3.10;;;2.47;;
12687;SDS011;6408;59.388;17.798;2023-11-19T09:36:19;3.07;;;2.77;;
12687;SDS011;6408;59.388;17.798;2023-11-19T09:38:48;3.37;;;2.60;;
12687;SDS011;6408;59.388;17.798;2023-11-19T09:41:17;4.73;;;2.30;;
12687;SDS011;6408;59.388;17.798;2023-11-19T09:43:45;6.63;;;2.70;;
12687;SDS011;6408;59.388;17.798;2023-11-19T09:46:13;2.77;;;2.30;;
12687;SDS011;6408;59.388;17.798;2023-11-19T09:48:43;3.23;;;2.37;;
12687;SDS011;6408;59.388;17.798;2023-11-19T09:51:13;3.63;;;2.60;;
12687;SDS011;6408;59.388;17.798;2023-11-19T09:53:42;6.83;;;2.90;;
12687;SDS011;6408;59.388;17.798;2023-11-19T09:56:09;4.27;;;2.67;;
12687;SDS011;6408;59.388;17.798;2023-11-19T09:58:38;2.90;;;2.53;;
12687;SDS011;6408;59.388;17.798;2023-11-19T10:01:06;5.07;;;2.50;;
12687;SDS011;6408;59.388;17.798;2023-11-19T10:03:37;2.27;;;2.07;;
12687;SDS011;6408;59.388;17.798;2023-11-19T10:06:10;3.27;;;2.27;;
12687;SDS011;6408;59.388;17.798;2023-11-19T10:08:38;2.50;;;2.30;;
12687;SDS011;6408;59.388;17.798;2023-11-19T10:11:08;4.47;;;2.67;;
12687;SDS011;6408;59.388;17.798;2023-11-19T10:13:37;3.30;;;2.90;;
12687;SDS011;6408;59.388;17.798;2023-11-19T10:16:08;5.80;;;2.40;;
12687;SDS011;6408;59.388;17.798;2023-11-19T10:18:36;3.33;;;2.33;;
12687;SDS011;6408;59.388;17.798;2023-11-19T10:21:05;4.03;;;2.40;;
12687;SDS011;6408;59.388;17.798;2023-11-19T10:23:55;2.93;;;2.40;;
12687;SDS011;6408;59.388;17.798;2023-11-19T10:26:25;2.40;;;2.20;;
12687;SDS011;6408;59.388;17.798;2023-11-19T10:28:53;2.87;;;2.17;;
12687;SDS011;6408;59.388;17.798;2023-11-19T10:31:21;2.30;;;2.07;;
12687;SDS011;6408;59.388;17.798;2023-11-19T10:33:51;2.70;;;2.20;;
12687;SDS011;6408;59.388;17.798;2023-11-19T10:36:18;4.27;;;2.50;;
12687;SDS011;6408;59.388;17.798;2023-11-19T10:38:59;3.70;;;2.47;;
12687;SDS011;6408;59.388;17.798;2023-11-19T10:41:26;4.30;;;2.80;;
12687;SDS011;6408;59.388;17.798;2023-11-19T10:43:55;5.83;;;2.60;;
12687;SDS011;6408;59.388;17.798;2023-11-19T10:46:24;3.53;;;2.60;;
12687;SDS011;6408;59.388;17.798;2023-11-19T10:49:04;3.70;;;2.40;;
12687;SDS011;6408;59.388;17.798;2023-11-19T10:51:31;3.67;;;2.33;;
12687;SDS011;6408;59.388;17.798;2023-11-19T10:54:02;3.10;;;2.70;;
12687;SDS011;6408;59.388;17.798;2023-11-19T10:56:31;4.60;;;3.10;;
12687;SDS011;6408;59.388;17.798;2023-11-19T10:58:59;3.83;;;2.27;;
12687;SDS011;6408;59.388;17.798;2023-11-19T11:04:13;4.03;;;2.50;;
12687;SDS011;6408;59.388;17.798;2023-11-19T11:06:48;5.53;;;2.00;;
12687;SDS011;6408;59.388;17.798;2023-11-19T11:09:20;3.03;;;2.13;;
12687;SDS011;6408;59.388;17.798;2023-11-19T11:11:48;3.13;;;2.20;;
12687;SDS011;6408;59.388;17.798;2023-11-19T11:14:18;4.03;;;2.70;;
12687;SDS011;6408;59.388;17.798;2023-11-19T11:16:47;3.70;;;2.10;;
12687;SDS011;6408;59.388;17.798;2023-11-19T11:19:15;3.43;;;2.57;;
12687;SDS011;6408;59.388;17.798;2023-11-19T11:21:47;5.70;;;3.80;;
12687;SDS011;6408;59.388;17.798;2023-11-19T11:24:30;5.53;;;3.50;;
12687;SDS011;6408;59.388;17.798;2023-11-19T11:27:23;3.43;;;2.17;;
12687;SDS011;6408;59.388;17.798;2023-11-19T11:30:20;3.87;;;2.63;;
12687;SDS011;6408;59.388;17.798;2023-11-19T11:33:15;3.73;;;2.20;;
12687;SDS011;6408;59.388;17.798;2023-11-19T11:35:55;3.63;;;2.23;;
12687;SDS011;6408;59.388;17.798;2023-11-19T11:38:37;4.17;;;2.33;;
12687;SDS011;6408;59.388;17.798;2023-11-19T11:41:18;3.03;;;2.53;;
12687;SDS011;6408;59.388;17.798;2023-11-19T11:43:47;5.70;;;2.43;;
12687;SDS011;6408;59.388;17.798;2023-11-19T11:49:26;2.77;;;2.27;;
12687;SDS011;6408;59.388;17.798;2023-11-19T11:51:59;3.87;;;2.40;;
12687;SDS011;6408;59.388;17.798;2023-11-19T11:54:28;2.77;;;2.10;;
12687;SDS011;6408;59.388;17.798;2023-11-19T11:59:50;2.83;;;2.13;;
12687;SDS011;6408;59.388;17.798;2023-11-19T12:02:19;2.00;;;1.80;;
12687;SDS011;6408;59.388;17.798;2023-11-19T12:04:50;3.63;;;2.40;;
12687;SDS011;6408;59.388;17.798;2023-11-19T12:07:21;2.90;;;2.03;;
12687;SDS011;6408;59.388;17.798;2023-11-19T12:09:51;3.60;;;2.50;;
12687;SDS011;6408;59.388;17.798;2023-11-19T12:12:26;2.10;;;1.90;;
12687;SDS011;6408;59.388;17.798;2023-11-19T12:15:04;5.07;;;2.10;;
12687;SDS011;6408;59.388;17.798;2023-11-19T12:17:40;3.03;;;2.03;;
12687;SDS011;6408;59.388;17.798;2023-11-19T12:20:26;3.50;;;2.37;;
12687;SDS011;6408;59.388;17.798;2023-11-19T12:22:56;2.57;;;2.20;;
12687;SDS011;6408;59.388;17.798;2023-11-19T12:25:30;4.27;;;2.30;;
12687;SDS011;6408;59.388;17.798;2023-11-19T12:28:02;3.13;;;2.63;;
12687;SDS011;6408;59.388;17.798;2023-11-19T12:30:31;3.57;;;2.00;;
12687;SDS011;6408;59.388;17.798;2023-11-19T12:33:07;2.97;;;2.10;;
12687;SDS011;6408;59.388;17.798;2023-11-19T12:35:46;2.60;;;2.27;;
12687;SDS011;6408;59.388;17.798;2023-11-19T12:38:18;3.27;;;2.00;;
12687;SDS011;6408;59.388;17.798;2023-11-19T12:41:05;3.20;;;2.33;;
12687;SDS011;6408;59.388;17.798;2023-11-19T12:43:40;3.33;;;2.00;;
12687;SDS011;6408;59.388;17.798;2023-11-19T12:46:16;5.30;;;2.30;;
12687;SDS011;6408;59.388;17.798;2023-11-19T12:48:45;4.43;;;2.00;;
12687;SDS011;6408;59.388;17.798;2023-11-19T12:51:13;10.50;;;3.10;;
12687;SDS011;6408;59.388;17.798;2023-11-19T12:53:50;4.33;;;2.53;;
12687;SDS011;6408;59.388;17.798;2023-11-19T12:56:30;3.67;;;2.27;;
12687;SDS011;6408;59.388;17.798;2023-11-19T12:59:01;6.90;;;3.30;;
12687;SDS011;6408;59.388;17.798;2023-11-19T13:01:41;8.80;;;2.90;;
12687;SDS011;6408;59.388;17.798;2023-11-19T13:04:20;6.03;;;3.60;;
12687;SDS011;6408;59.388;17.798;2023-11-19T13:06:50;11.87;;;4.17;;
12687;SDS011;6408;59.388;17.798;2023-11-19T13:09:23;13.33;;;5.50;;
12687;SDS011;6408;59.388;17.798;2023-11-19T13:11:59;9.57;;;4.27;;
12687;SDS011;6408;59.388;17.798;2023-11-19T13:14:43;18.73;;;7.07;;
12687;SDS011;6408;59.388;17.798;2023-11-19T13:17:13;6.20;;;2.87;;
12687;SDS011;6408;59.388;17.798;2023-11-19T13:19:41;4.87;;;2.60;;
12687;SDS011;6408;59.388;17.798;2023-11-19T13:22:11;4.97;;;3.30;;
12687;SDS011;6408;59.388;17.798;2023-11-19T13:24:40;4.60;;;3.13;;
12687;SDS011;6408;59.388;17.798;2023-11-19T13:27:11;9.07;;;4.47;;
12687;SDS011;6408;59.388;17.798;2023-11-19T13:29:39;4.67;;;3.07;;
12687;SDS011;6408;59.388;17.798;2023-11-19T13:32:07;8.50;;;4.63;;
12687;SDS011;6408;59.388;17.798;2023-11-19T13:34:34;3.70;;;2.80;;
12687;SDS011;6408;59.388;17.798;2023-11-19T13:37:06;3.07;;;2.50;;
12687;SDS011;6408;59.388;17.798;2023-11-19T13:39:33;3.23;;;2.70;;
12687;SDS011;6408;59.388;17.798;2023-11-19T13:42:01;3.73;;;2.57;;
12687;SDS011;6408;59.388;17.798;2023-11-19T13:44:28;3.47;;;2.40;;
12687;SDS011;6408;59.388;17.798;2023-11-19T13:46:59;2.47;;;2.20;;
12687;SDS011;6408;59.388;17.798;2023-11-19T13:49:29;4.63;;;2.50;;
12687;SDS011;6408;59.388;17.798;2023-11-19T13:51:56;11.00;;;2.67;;
12687;SDS011;6408;59.388;17.798;2023-11-19T13:54:24;3.93;;;2.40;;
12687;SDS011;6408;59.388;17.798;2023-11-19T13:56:54;3.20;;;2.40;;
12687;SDS011;6408;59.388;17.798;2023-11-19T13:59:23;6.10;;;2.30;;
12687;SDS011;6408;59.388;17.798;2023-11-19T14:01:50;3.47;;;2.50;;
12687;SDS011;6408;59.388;17.798;2023-11-19T14:04:21;3.03;;;2.73;;
12687;SDS011;6408;59.388;17.798;2023-11-19T14:06:51;2.87;;;2.40;;
12687;SDS011;6408;59.388;17.798;2023-11-19T14:09:20;4.10;;;2.47;;
12687;SDS011;6408;59.388;17.798;2023-11-19T14:11:48;2.80;;;2.30;;
12687;SDS011;6408;59.388;17.798;2023-11-19T14:14:16;4.83;;;3.07;;
12687;SDS011;6408;59.388;17.798;2023-11-19T14:16:44;4.23;;;2.70;;
12687;SDS011;6408;59.388;17.798;2023-11-19T14:19:11;4.07;;;2.93;;
12687;SDS011;6408;59.388;17.798;2023-11-19T14:21:39;3.23;;;2.43;;
12687;SDS011;6408;59.388;17.798;2023-11-19T14:24:08;3.87;;;2.60;;
12687;SDS011;6408;59.388;17.798;2023-11-19T14:29:26;2.73;;;2.50;;
12687;SDS011;6408;59.388;17.798;2023-11-19T14:31:55;3.17;;;2.27;;
12687;SDS011;6408;59.388;17.798;2023-11-19T14:34:24;3.17;;;2.33;;
12687;SDS011;6408;59.388;17.798;2023-11-19T14:37:10;4.20;;;2.53;;
12687;SDS011;6408;59.388;17.798;2023-11-19T14:42:51;3.07;;;2.50;;
12687;SDS011;6408;59.388;17.798;2023-11-19T14:45:26;4.23;;;2.60;;
12687;SDS011;6408;59.388;17.798;2023-11-19T14:47:54;3.70;;;2.60;;
12687;SDS011;6408;59.388;17.798;2023-11-19T14:50:22;3.77;;;2.50;;
12687;SDS011;6408;59.388;17.798;2023-11-19T14:52:51;4.37;;;2.67;;
12687;SDS011;6408;59.388;17.798;2023-11-19T14:55:20;5.90;;;3.00;;
12687;SDS011;6408;59.388;17.798;2023-11-19T14:57:55;3.40;;;2.43;;
12687;SDS011;6408;59.388;17.798;2023-11-19T15:00:32;2.63;;;2.10;;
12687;SDS011;6408;59.388;17.798;2023-11-19T15:03:11;4.87;;;2.97;;
12687;SDS011;6408;59.388;17.798;2023-11-19T15:05:41;4.27;;;2.73;;
12687;SDS011;6408;59.388;17.798;2023-11-19T15:08:10;4.37;;;2.67;;
12687;SDS011;6408;59.388;17.798;2023-11-19T15:10:38;3.97;;;2.97;;
12687;SDS011;6408;59.388;17.798;2023-11-19T15:13:10;5.73;;;3.47;;
12687;SDS011;6408;59.388;17.798;2023-11-19T15:15:49;7.93;;;4.23;;
12687;SDS011;6408;59.388;17.798;2023-11-19T15:18:49;3.97;;;2.90;;
12687;SDS011;6408;59.388;17.798;2023-11-19T15:21:18;4.10;;;3.00;;
12687;SDS011;6408;59.388;17.798;2023-11-19T15:24:34;3.83;;;2.83;;
12687;SDS011;6408;59.388;17.798;2023-11-19T15:27:28;5.83;;;3.60;;
12687;SDS011;6408;59.388;17.798;2023-11-19T15:29:55;4.03;;;3.30;;
12687;SDS011;6408;59.388;17.798;2023-11-19T15:32:41;5.40;;;3.43;;
12687;SDS011;6408;59.388;17.798;2023-11-19T15:35:10;7.47;;;3.73;;
12687;SDS011;6408;59.388;17.798;2023-11-19T15:37:40;4.10;;;3.43;;